Capitol Logistics 361


KSEA
Seattle-Tacoma International Airport
Seattle, Washington, US
KMIA
Miami International Airport
Miami, Florida, US

Route Details

Aircraft Information
Primary: Boeing 767-300BDSF
Backup: Not Available
Route Data
Distance: 2411nm
Sched. Duration: 5h 40m
Avg. Duration: 5h 27m (-13m)
Times Flown: 7
Recm'd Route: SEA NORMY J90 MWH DLN DDY BFF SGF MEM MGM SZW PLYER JUULI SSCOT5
Planned Altitude: 35,000ft
Origin Wx: KSEA 251253Z 02010KT 10SM FEW050 02/M01 A3049 RMK AO2 SLP336 T00221011 $
Dest. Wx: KMIA 251320Z VRB03G15KT 7SM -RA BKN010 BKN017 OVC037 26/25 A2991 RMK AO2 LTG DSNT SE P0001 T02560250 $
Notes:

Financial History
Total Freight: 648,065lbs
Average Load: 92,581lbs/flt
Fuel Used: 409,279lbs
Avg. Fuel Used: 58,468lbs/flt
Fuel Expense: $458,393
Avg. Fuel Expense: $65,485
Avg. Fuel Cost: $1.12/lbs
Total Gross Income: $1,110,322
Pilot Pay: $1,443
Total Expenses: $120,279
Total Revenue: $522,098
Average Revenue: $158,617.39